createdAt,value
2019-04-10T00:00:02.366Z,30.30
2019-04-10T00:01:01.445Z,31.90
2019-04-10T00:02:01.513Z,31.80
2019-04-10T00:03:02.092Z,32.90
2019-04-10T00:04:01.012Z,31.80
2019-04-10T00:05:01.282Z,31.20
2019-04-10T00:06:01.004Z,33.00
2019-04-10T00:07:10.575Z,31.20
2019-04-10T00:08:01.974Z,30.80
2019-04-10T00:09:01.002Z,30.70
2019-04-10T00:10:00.972Z,31.60
2019-04-10T00:11:00.944Z,32.40
2019-04-10T00:12:01.014Z,31.60
2019-04-10T00:13:00.918Z,31.50
2019-04-10T00:14:00.941Z,32.80
2019-04-10T00:15:00.961Z,32.40
2019-04-10T00:16:00.894Z,32.20
2019-04-10T00:17:00.890Z,32.40
2019-04-10T00:18:01.884Z,31.10
2019-04-10T00:19:00.854Z,31.80
2019-04-10T00:20:00.889Z,30.90
2019-04-10T00:21:00.916Z,31.70
2019-04-10T00:22:02.692Z,32.80
2019-04-10T00:23:00.805Z,31.90
2019-04-10T00:24:01.890Z,33.20
2019-04-10T00:25:00.790Z,35.20
2019-04-10T00:26:01.467Z,34.10
2019-04-10T00:27:01.817Z,33.30
2019-04-10T00:28:01.188Z,31.50
2019-04-10T00:29:01.740Z,31.70
2019-04-10T00:30:00.722Z,33.40
2019-04-10T00:31:01.840Z,32.30
2019-04-10T00:32:02.181Z,34.40
2019-04-10T00:33:00.693Z,34.10
2019-04-10T00:34:01.042Z,35.20
2019-04-10T00:35:00.659Z,31.00
2019-04-10T00:36:01.611Z,32.10
2019-04-10T00:37:01.678Z,33.20
2019-04-10T00:38:01.638Z,32.70
2019-04-10T00:39:00.622Z,33.40
2019-04-10T00:40:01.220Z,32.30
2019-04-10T00:41:00.698Z,32.60
2019-04-10T00:42:00.913Z,32.90
2019-04-10T00:43:00.578Z,33.30
2019-04-10T00:44:01.466Z,33.40
2019-04-10T00:45:00.561Z,32.80
2019-04-10T00:46:00.548Z,32.00
2019-04-10T00:47:00.554Z,32.00
2019-04-10T00:48:01.602Z,32.10
2019-04-10T00:49:00.661Z,32.60
2019-04-10T00:50:00.519Z,32.50
2019-04-10T00:51:01.267Z,31.70
2019-04-10T00:52:00.463Z,32.00
2019-04-10T00:53:00.913Z,32.90
2019-04-10T00:54:01.448Z,32.50
2019-04-10T00:55:01.459Z,32.50
2019-04-10T00:56:00.412Z,31.70
2019-04-10T00:57:01.044Z,33.40
2019-04-10T00:58:01.518Z,29.60
2019-04-10T00:59:00.377Z,33.00
2019-04-10T01:00:00.911Z,32.20
2019-04-10T01:01:00.369Z,34.00
2019-04-10T01:02:00.428Z,32.90
2019-04-10T01:03:00.887Z,32.40
2019-04-10T01:04:00.340Z,32.30
2019-04-10T01:05:00.523Z,33.20
2019-04-10T01:06:00.317Z,32.30
2019-04-10T01:07:00.330Z,32.10
2019-04-10T01:08:00.279Z,31.90
2019-04-10T01:09:01.173Z,31.40
2019-04-10T01:10:00.251Z,32.60
2019-04-10T01:11:01.047Z,32.60
2019-04-10T01:12:00.411Z,31.60
2019-04-10T01:13:00.674Z,32.60
2019-04-10T01:14:01.159Z,34.20
2019-04-10T01:15:00.315Z,35.50
2019-04-10T01:16:00.716Z,33.90
2019-04-10T01:17:00.170Z,33.10
2019-04-10T01:18:00.156Z,34.30
2019-04-10T01:19:00.186Z,33.00
2019-04-10T01:20:00.647Z,33.80
2019-04-10T01:21:00.137Z,34.20
2019-04-10T01:22:01.028Z,31.10
2019-04-10T01:23:00.145Z,31.30
2019-04-10T01:24:00.090Z,32.20
2019-04-10T01:25:00.117Z,33.50
2019-04-10T01:26:01.008Z,31.10
2019-04-10T01:27:00.060Z,33.10
2019-04-10T01:28:00.549Z,32.20
2019-04-10T01:29:00.889Z,31.70
2019-04-10T01:30:00.122Z,35.30
2019-04-10T01:31:00.020Z,34.00
2019-04-10T01:32:00.015Z,31.70
2019-04-10T01:33:00.646Z,32.40
2019-04-10T01:34:00.978Z,32.90
2019-04-10T01:35:00.244Z,32.60
2019-04-10T01:35:59.972Z,31.30
2019-04-10T01:37:00.622Z,31.00
2019-04-10T01:38:01.421Z,32.10
2019-04-10T01:38:59.978Z,30.70
2019-04-10T01:39:59.916Z,31.00
2019-04-10T01:40:59.903Z,31.10
2019-04-10T01:42:00.604Z,32.80
2019-04-10T01:43:06.641Z,31.80
2019-04-10T01:44:01.483Z,32.20
2019-04-10T01:45:00.771Z,31.00
2019-04-10T01:46:00.059Z,31.00
2019-04-10T01:46:59.843Z,30.40
2019-04-10T01:47:59.867Z,33.20
2019-04-10T01:48:59.808Z,32.30
2019-04-10T01:50:00.081Z,32.60
2019-04-10T01:50:59.783Z,32.10
2019-04-10T01:51:59.790Z,31.20
2019-04-10T01:52:59.756Z,32.60
2019-04-10T01:54:00.567Z,33.50
2019-04-10T01:54:59.857Z,32.60
2019-04-10T01:55:59.748Z,32.40
2019-04-10T01:56:59.764Z,32.40
2019-04-10T01:57:59.718Z,31.40
2019-04-10T01:58:59.745Z,32.00
2019-04-10T02:00:00.496Z,32.90
2019-04-10T02:00:59.687Z,31.00
2019-04-10T02:01:59.659Z,33.70
2019-04-10T02:02:59.704Z,35.20
2019-04-10T02:04:00.573Z,32.40
2019-04-10T02:05:00.635Z,32.80
2019-04-10T02:05:59.651Z,33.00
2019-04-10T02:06:59.949Z,35.10
2019-04-10T02:08:07.940Z,34.40
2019-04-10T02:09:00.584Z,33.00
2019-04-10T02:09:59.603Z,33.70
2019-04-10T02:11:00.573Z,34.00
2019-04-10T02:11:59.566Z,31.80
2019-04-10T02:12:59.551Z,32.30
2019-04-10T02:14:00.260Z,33.60
2019-04-10T02:15:00.474Z,33.90
2019-04-10T02:16:00.481Z,35.80
2019-04-10T02:16:59.508Z,35.90
2019-04-10T02:18:01.297Z,37.50
2019-04-10T02:18:59.636Z,37.10
2019-04-10T02:19:59.475Z,41.60
2019-04-10T02:20:59.485Z,40.10
2019-04-10T02:22:00.268Z,38.50
2019-04-10T02:22:59.409Z,37.60
2019-04-10T02:24:00.923Z,38.50
2019-04-10T02:24:59.709Z,35.50
2019-04-10T02:25:59.411Z,35.80
2019-04-10T02:27:00.272Z,34.80
2019-04-10T02:27:59.540Z,35.90
2019-04-10T02:28:59.569Z,34.80
2019-04-10T02:29:59.939Z,35.80
2019-04-10T02:31:00.689Z,34.90
2019-04-10T02:31:59.855Z,33.30
2019-04-10T02:32:59.792Z,35.00
2019-04-10T02:34:01.276Z,34.80
2019-04-10T02:34:59.331Z,33.70
2019-04-10T02:35:59.318Z,35.50
2019-04-10T02:37:00.653Z,34.00
2019-04-10T02:38:19.869Z,36.20
2019-04-10T02:39:13.907Z,36.10
2019-04-10T02:40:02.761Z,34.80
2019-04-10T02:40:59.219Z,34.80
2019-04-10T02:42:00.514Z,34.50
2019-04-10T07:53:57.744Z,33.70
2019-04-10T07:54:57.136Z,25.10
2019-04-10T07:56:05.305Z,24.30
2019-04-10T07:56:58.121Z,24.30
2019-04-10T07:57:57.238Z,23.90
2019-04-10T07:58:57.062Z,23.80
2019-04-10T07:59:57.127Z,23.10
2019-04-10T08:00:57.028Z,23.20
2019-04-10T08:01:58.060Z,23.80
2019-04-10T08:02:57.467Z,23.90
2019-04-10T08:03:57.617Z,23.40
2019-04-10T08:04:57.931Z,23.50
2019-04-10T08:05:58.000Z,23.80
2019-04-10T08:06:57.106Z,24.50
2019-04-10T08:07:57.533Z,23.70
2019-04-10T08:08:56.950Z,22.60
2019-04-10T08:09:57.155Z,23.40
2019-04-10T08:10:57.405Z,23.70
2019-04-10T08:11:56.913Z,23.90
2019-04-10T08:12:58.081Z,23.60
2019-04-10T08:13:57.574Z,23.50
2019-04-10T08:14:56.907Z,23.40
2019-04-10T08:15:56.883Z,23.60
2019-04-10T08:16:57.401Z,23.20
2019-04-10T08:17:56.852Z,22.80
2019-04-10T08:18:56.967Z,23.50
2019-04-10T08:19:57.339Z,24.00
2019-04-10T08:20:57.278Z,22.30
2019-04-10T08:21:56.988Z,21.90
2019-04-10T08:22:57.389Z,21.10
2019-04-10T08:23:56.770Z,22.30
2019-04-10T08:24:56.753Z,22.10
2019-04-10T08:25:57.955Z,22.40
2019-04-10T08:26:57.035Z,21.50
2019-04-10T08:27:56.781Z,22.10
2019-04-10T08:28:57.217Z,22.10
2019-04-10T08:29:56.935Z,22.40
2019-04-10T08:30:57.540Z,21.60
2019-04-10T08:31:56.716Z,21.60
2019-04-10T08:33:01.030Z,21.10
2019-04-10T08:33:58.913Z,21.90
2019-04-10T08:34:56.666Z,21.20
2019-04-10T08:35:56.903Z,21.40
2019-04-10T08:36:56.892Z,22.40
2019-04-10T08:37:57.023Z,21.50
2019-04-10T08:38:57.022Z,21.10
2019-04-10T08:39:56.907Z,21.20
2019-04-10T08:40:56.658Z,21.70
2019-04-10T08:41:57.935Z,21.20
2019-04-10T08:42:57.735Z,20.60
2019-04-10T08:43:56.754Z,20.40
2019-04-10T08:44:56.581Z,21.30
2019-04-10T08:45:56.865Z,21.20
2019-04-10T08:46:56.547Z,20.60
2019-04-10T08:47:57.309Z,20.30
2019-04-10T08:48:56.499Z,21.00
2019-04-10T08:49:57.196Z,21.50
2019-04-10T08:50:56.848Z,20.80
2019-04-10T08:51:57.558Z,20.70
2019-04-10T08:52:56.440Z,19.90
2019-04-10T08:53:56.849Z,20.00
2019-04-10T08:54:57.415Z,19.40
2019-04-10T08:55:56.792Z,19.10
2019-04-10T08:56:56.890Z,20.00
2019-04-10T08:57:57.016Z,20.60
2019-04-10T08:58:57.257Z,19.60
2019-04-10T08:59:56.416Z,19.80
2019-04-10T09:00:56.651Z,19.50
2019-04-10T09:01:56.348Z,20.00
2019-04-10T09:02:56.360Z,20.00
2019-04-10T09:03:57.386Z,19.80
2019-04-10T09:04:57.326Z,19.30
2019-04-10T09:05:57.003Z,19.10
2019-04-10T09:06:56.338Z,20.10
2019-04-10T09:07:56.966Z,19.50
2019-04-10T09:08:57.180Z,19.90
2019-04-10T09:09:56.320Z,20.00
2019-04-10T09:10:56.241Z,18.50
2019-04-10T09:11:57.430Z,18.80
2019-04-10T09:12:56.234Z,20.20
2019-04-10T09:13:56.917Z,19.50
2019-04-10T09:14:57.143Z,18.90
2019-04-10T09:15:56.284Z,19.70
2019-04-10T09:16:56.165Z,20.10
2019-04-10T09:17:56.221Z,18.80
2019-04-10T09:18:56.358Z,20.20
2019-04-10T09:19:56.210Z,19.50
2019-04-10T09:20:57.199Z,19.40
2019-04-10T09:21:56.148Z,19.10
2019-04-10T09:23:13.460Z,19.70
2019-04-10T09:23:58.071Z,19.10
2019-04-10T09:24:56.085Z,18.30
2019-04-10T09:25:56.134Z,19.30
2019-04-10T09:26:57.045Z,19.10
2019-04-10T09:27:56.094Z,18.90
2019-04-10T09:28:57.069Z,20.20
2019-04-10T09:29:56.367Z,18.70
2019-04-10T09:30:56.014Z,18.70
2019-04-10T09:31:56.028Z,19.10
2019-04-10T09:32:56.985Z,19.50
2019-04-10T09:33:57.164Z,18.60
2019-04-10T09:34:56.257Z,19.20
2019-04-10T09:35:57.086Z,18.00
2019-04-10T09:36:55.950Z,18.30
2019-04-10T09:37:56.641Z,17.80
2019-04-10T09:38:55.950Z,17.80
2019-04-10T09:39:56.529Z,17.70
2019-04-10T09:40:55.904Z,17.50
2019-04-10T09:41:56.452Z,17.60
2019-04-10T09:42:55.891Z,18.10
2019-04-10T09:43:56.243Z,17.90
2019-04-10T09:44:56.928Z,17.50
2019-04-10T09:45:55.904Z,17.50
2019-04-10T09:46:55.840Z,17.80
2019-04-10T09:47:55.946Z,17.30
2019-04-10T09:48:56.671Z,18.00
2019-04-10T09:49:55.928Z,18.30
2019-04-10T09:50:56.153Z,18.20
2019-04-10T09:51:56.815Z,17.90
2019-04-10T09:52:56.592Z,17.80
2019-04-10T09:53:57.297Z,17.50
2019-04-10T09:54:55.836Z,17.10
2019-04-10T09:55:57.218Z,17.00
2019-04-10T09:56:59.156Z,17.00
2019-04-10T09:57:55.714Z,16.30
2019-04-10T09:58:56.729Z,16.10
2019-04-10T09:59:56.792Z,16.80
2019-04-10T10:00:56.559Z,16.70
2019-04-10T10:01:56.353Z,16.70
2019-04-10T10:02:56.287Z,17.20
2019-04-10T10:03:56.966Z,17.20
2019-04-10T10:04:57.799Z,16.70
2019-04-10T10:05:55.619Z,16.80
2019-04-10T10:06:55.758Z,16.40
2019-04-10T10:07:56.149Z,16.80
2019-04-10T10:08:56.461Z,16.50
2019-04-10T10:09:58.946Z,16.80
2019-04-10T10:10:55.655Z,16.30
2019-04-10T10:11:55.617Z,16.50
2019-04-10T10:12:55.586Z,17.60
2019-04-10T10:13:56.396Z,16.70
2019-04-10T10:14:56.299Z,16.30
2019-04-10T10:15:56.683Z,16.70
2019-04-10T10:16:55.968Z,17.00
2019-04-10T10:17:55.479Z,17.00
2019-04-10T10:18:55.515Z,16.90
2019-04-10T10:19:55.481Z,16.60
2019-04-10T10:20:56.386Z,16.20
2019-04-10T10:21:55.455Z,16.20
2019-04-10T10:22:55.769Z,15.80
2019-04-10T10:23:55.519Z,15.70
2019-04-10T10:24:56.786Z,15.60
2019-04-10T10:25:55.481Z,16.90
2019-04-10T10:26:55.654Z,16.90
2019-04-10T10:27:56.502Z,17.10
2019-04-10T10:28:56.419Z,16.60
2019-04-10T10:29:56.097Z,17.20
2019-04-10T10:30:55.733Z,16.90
2019-04-10T10:31:55.318Z,17.30
2019-04-10T10:32:55.356Z,16.80
2019-04-10T10:33:56.453Z,16.40
2019-04-10T10:34:55.304Z,16.90
2019-04-10T10:35:55.627Z,17.00
2019-04-10T10:36:55.907Z,16.50
2019-04-10T10:37:56.850Z,17.60
2019-04-10T10:39:05.292Z,16.70
2019-04-10T10:39:56.516Z,17.80
2019-04-10T10:40:55.264Z,16.90
2019-04-10T10:41:56.432Z,18.00
2019-04-10T10:42:56.128Z,18.10
2019-04-10T10:43:56.433Z,18.00
2019-04-10T10:44:56.461Z,16.70
2019-04-10T10:45:55.794Z,17.40
2019-04-10T10:46:55.812Z,17.70
2019-04-10T10:47:56.763Z,17.80
2019-04-10T10:48:55.815Z,17.00
2019-04-10T10:49:55.131Z,16.40
2019-04-10T10:50:56.109Z,17.50
2019-04-10T10:51:55.239Z,17.00
2019-04-10T10:52:55.541Z,17.50
2019-04-10T10:53:55.100Z,17.00
2019-04-10T10:54:55.062Z,17.30
2019-04-10T10:55:56.034Z,16.40
2019-04-10T10:56:55.101Z,16.90
2019-04-10T10:57:55.433Z,17.40
2019-04-10T10:58:57.792Z,18.00
2019-04-10T10:59:55.006Z,17.20
2019-04-10T11:00:55.721Z,16.90
2019-04-10T11:01:55.963Z,16.50
2019-04-10T11:02:55.995Z,16.30
2019-04-10T11:03:54.964Z,16.30
2019-04-10T11:04:55.806Z,15.80
2019-04-10T11:05:54.968Z,16.70
2019-04-10T11:07:00.008Z,16.80
2019-04-10T11:07:55.979Z,16.10
2019-04-10T11:08:55.547Z,15.70
2019-04-10T11:09:54.906Z,15.90
2019-04-10T11:10:56.323Z,15.70
2019-04-10T11:11:55.977Z,15.90
2019-04-10T11:12:55.271Z,15.80
2019-04-10T11:13:55.133Z,15.60
2019-04-10T11:14:56.186Z,15.90
2019-04-10T11:15:54.824Z,14.60
2019-04-10T11:16:56.249Z,14.30
2019-04-10T11:17:54.847Z,15.60
2019-04-10T11:18:55.086Z,15.60
2019-04-10T11:19:55.891Z,15.20
2019-04-10T11:21:00.717Z,15.70
2019-04-10T11:21:56.906Z,15.30
2019-04-10T11:22:55.821Z,15.10
2019-04-10T11:23:55.596Z,15.00
2019-04-10T11:24:55.727Z,15.90
2019-04-10T11:25:55.866Z,15.90
2019-04-10T11:26:54.785Z,16.10
2019-04-10T11:27:56.315Z,15.90
2019-04-10T11:28:55.694Z,15.70
2019-04-10T11:29:55.057Z,16.50
2019-04-10T11:30:54.670Z,15.60
2019-04-10T11:31:55.593Z,16.40
2019-04-10T11:32:55.656Z,15.20
2019-04-10T11:33:56.346Z,16.30
2019-04-10T11:34:55.601Z,15.60
2019-04-10T11:35:55.237Z,15.90
2019-04-10T11:37:12.950Z,15.20
2019-04-10T11:37:59.019Z,15.80
2019-04-10T11:39:06.540Z,15.00
2019-04-10T11:39:56.243Z,15.20
2019-04-10T11:40:57.628Z,15.70
2019-04-10T11:41:55.260Z,15.10
2019-04-10T11:42:55.600Z,14.70
2019-04-10T11:43:56.059Z,15.10
2019-04-10T11:44:55.411Z,15.40
2019-04-10T11:45:57.599Z,15.60
2019-04-10T11:46:56.548Z,15.10
2019-04-10T11:47:54.457Z,15.10
2019-04-10T11:48:55.543Z,14.80
2019-04-10T11:49:57.254Z,15.40
2019-04-10T11:50:59.012Z,14.10
2019-04-10T11:51:59.448Z,14.80
2019-04-10T11:52:56.740Z,14.80
2019-04-10T11:53:56.428Z,14.80
2019-04-10T11:55:57.016Z,14.90
2019-04-10T11:56:58.329Z,14.80
2019-04-10T11:57:55.375Z,14.30
2019-04-10T11:58:56.504Z,15.00
2019-04-10T11:59:54.566Z,15.40
2019-04-10T12:02:00.162Z,14.90
2019-04-10T12:02:58.738Z,14.30
2019-04-10T12:03:56.785Z,15.20
2019-04-10T12:04:59.229Z,15.40
2019-04-10T12:05:57.213Z,15.20
2019-04-10T12:06:57.053Z,15.60
2019-04-10T12:08:22.172Z,15.30
2019-04-10T12:09:19.338Z,14.30
2019-04-10T12:11:55.374Z,13.60
2019-04-10T12:12:55.572Z,13.90
2019-04-10T12:13:54.572Z,14.30
2019-04-10T12:14:54.286Z,13.50
2019-04-10T12:15:54.141Z,13.90
2019-04-10T12:16:54.158Z,14.30
2019-04-10T12:17:55.588Z,14.50
2019-04-10T12:18:55.864Z,14.10
2019-04-10T12:19:54.373Z,13.70
2019-04-10T12:20:54.089Z,13.10
2019-04-10T12:21:54.177Z,13.10
2019-04-10T12:22:54.586Z,12.90
2019-04-10T12:23:54.042Z,13.40
2019-04-10T12:24:54.355Z,13.20
2019-04-10T12:25:54.186Z,13.60
2019-04-10T12:26:54.113Z,14.20
2019-04-10T12:27:54.021Z,13.70
2019-04-10T12:28:54.046Z,13.20
2019-04-10T12:29:55.113Z,13.70
2019-04-10T12:30:53.978Z,13.40
2019-04-10T12:31:54.551Z,14.30
2019-04-10T12:32:54.823Z,13.30
2019-04-10T12:33:54.873Z,13.30
2019-04-10T12:34:53.918Z,13.80
2019-04-10T12:35:54.106Z,13.90
2019-04-10T12:36:55.135Z,13.30
2019-04-10T12:38:02.242Z,14.30
2019-04-10T12:38:56.062Z,14.00
2019-04-10T12:39:55.104Z,13.90
2019-04-10T12:40:55.041Z,13.60
2019-04-10T12:41:53.860Z,13.60
2019-04-10T12:42:54.618Z,14.10
2019-04-10T12:43:53.819Z,13.20
2019-04-10T12:44:53.801Z,13.60
2019-04-10T12:45:54.772Z,14.60
2019-04-10T12:46:53.780Z,13.50
2019-04-10T12:47:54.386Z,13.20
2019-04-10T12:48:54.927Z,13.40
2019-04-10T12:49:54.033Z,12.90
2019-04-10T12:50:53.754Z,13.70
2019-04-10T12:51:54.113Z,13.10
2019-04-10T12:52:54.734Z,13.60
2019-04-10T12:53:54.060Z,13.50
2019-04-10T12:54:53.695Z,13.20
2019-04-10T12:55:53.679Z,12.90
2019-04-10T12:56:54.658Z,12.50
2019-04-10T12:58:05.425Z,13.20
2019-04-10T12:58:55.129Z,12.90
2019-04-10T12:59:59.848Z,13.70
2019-04-10T13:00:54.636Z,13.50
2019-04-10T13:01:54.096Z,13.20
2019-04-10T13:02:54.553Z,13.50
2019-04-10T13:03:53.720Z,13.10
2019-04-10T13:04:54.613Z,13.00
2019-04-10T13:05:53.676Z,12.30
2019-04-10T13:06:53.565Z,13.10
2019-04-10T13:07:54.020Z,12.70
2019-04-10T13:09:03.997Z,12.80
2019-04-10T13:09:54.555Z,12.50
2019-04-10T13:10:54.034Z,12.30
2019-04-10T13:11:53.493Z,12.60
2019-04-10T13:12:53.577Z,12.70
2019-04-10T13:13:54.578Z,13.20
2019-04-10T13:14:53.499Z,12.10
2019-04-10T13:15:54.091Z,12.40
2019-04-10T13:16:53.458Z,13.00
2019-04-10T13:17:53.430Z,12.60
2019-04-10T13:18:54.474Z,12.40
2019-04-10T13:19:53.482Z,11.80
2019-04-10T13:20:53.721Z,12.70
2019-04-10T13:21:53.680Z,12.50
2019-04-10T13:22:53.415Z,11.90
2019-04-10T13:23:53.369Z,11.70
2019-04-10T13:24:54.138Z,11.60
2019-04-10T13:25:59.159Z,11.80
2019-04-10T13:26:55.153Z,11.70
2019-04-10T13:27:53.310Z,11.40
2019-04-10T13:28:53.919Z,11.70
2019-04-10T13:29:54.363Z,11.70
2019-04-10T13:30:55.213Z,11.50
2019-04-10T13:31:53.680Z,12.30
2019-04-10T13:32:53.262Z,11.90
2019-04-10T13:33:53.243Z,11.60
2019-04-10T13:34:53.418Z,11.70
2019-04-10T13:35:53.376Z,11.50
2019-04-10T13:36:53.530Z,11.20
2019-04-10T13:37:53.207Z,10.90
2019-04-10T13:38:53.185Z,11.30
2019-04-10T13:39:53.178Z,11.40
2019-04-10T13:40:54.273Z,11.40
2019-04-10T13:41:53.147Z,12.30
2019-04-10T13:42:53.696Z,12.90
2019-04-10T13:43:53.987Z,12.20
2019-04-10T13:44:53.119Z,12.80
2019-04-10T13:45:54.157Z,12.20
2019-04-10T13:46:53.212Z,12.20
2019-04-10T13:47:53.085Z,11.40
2019-04-10T13:48:53.511Z,11.80
2019-04-10T13:49:53.074Z,11.80
2019-04-10T13:50:53.050Z,10.80
2019-04-10T13:51:53.973Z,11.10
2019-04-10T13:52:54.035Z,11.00
2019-04-10T13:53:53.011Z,10.80
2019-04-10T13:54:53.011Z,10.80
2019-04-10T13:55:52.990Z,10.80
2019-04-10T13:56:53.167Z,11.00
2019-04-10T13:57:53.099Z,11.20
2019-04-10T13:58:53.050Z,11.40
2019-04-10T13:59:53.287Z,10.40
2019-04-10T14:00:53.609Z,11.00
2019-04-10T14:01:52.960Z,10.90
2019-04-10T14:02:54.051Z,10.60
2019-04-10T14:03:52.939Z,11.70
2019-04-10T14:04:53.444Z,10.90
2019-04-10T14:05:53.086Z,11.60
2019-04-10T14:06:53.605Z,11.10
2019-04-10T14:07:53.459Z,12.00
2019-04-10T14:09:07.889Z,11.50
2019-04-10T14:09:54.448Z,10.60
2019-04-10T14:10:52.973Z,10.90
2019-04-10T14:11:53.468Z,10.20
2019-04-10T14:12:53.494Z,10.90
2019-04-10T14:13:53.975Z,11.30
2019-04-10T14:14:53.119Z,10.80
2019-04-10T14:15:52.776Z,11.10
2019-04-10T14:16:53.036Z,11.90
2019-04-10T14:17:52.753Z,11.60
2019-04-10T14:18:52.950Z,11.50
2019-04-10T14:19:52.732Z,11.90
2019-04-10T14:20:53.436Z,12.50
2019-04-10T14:21:53.480Z,11.80
2019-04-10T14:22:53.651Z,11.10
2019-04-10T14:23:53.601Z,11.30
2019-04-10T14:24:53.603Z,11.80
2019-04-10T14:25:52.824Z,11.40
2019-04-10T14:26:54.941Z,11.30
2019-04-10T14:27:52.618Z,11.90
2019-04-10T14:28:53.547Z,12.10
2019-04-10T14:29:52.616Z,11.20
2019-04-10T14:30:53.707Z,11.60
2019-04-10T14:31:53.185Z,12.10
2019-04-10T14:32:52.578Z,11.60
2019-04-10T14:33:53.224Z,11.90
2019-04-10T14:34:52.691Z,11.50
2019-04-10T14:35:53.591Z,12.20
2019-04-10T14:36:52.756Z,12.60
2019-04-10T14:37:52.507Z,11.90
2019-04-10T14:38:52.559Z,12.20
2019-04-10T14:39:52.569Z,12.20
2019-04-10T14:40:53.473Z,12.00
2019-04-10T14:41:52.468Z,11.70
2019-04-10T14:42:53.566Z,11.70
2019-04-10T14:43:53.578Z,12.50
2019-04-10T14:44:53.094Z,12.40
2019-04-10T14:45:52.447Z,12.70
2019-04-10T14:46:52.405Z,12.20
2019-04-10T14:47:52.404Z,12.10
2019-04-10T14:48:52.382Z,11.70
2019-04-10T14:49:54.058Z,12.90
2019-04-10T14:50:52.387Z,12.40
2019-04-10T14:51:52.653Z,11.20
2019-04-10T14:52:52.345Z,11.10
2019-04-10T14:53:52.326Z,12.40
2019-04-10T14:54:52.316Z,12.10
2019-04-10T14:55:53.492Z,11.90
2019-04-10T14:56:52.583Z,12.40
2019-04-10T14:57:53.111Z,12.70
2019-04-10T14:58:52.943Z,12.50
2019-04-10T14:59:52.567Z,13.40
2019-04-10T15:00:52.987Z,13.10
2019-04-10T15:01:52.606Z,12.70
2019-04-10T15:02:52.259Z,13.00
2019-04-10T15:03:52.965Z,13.50
2019-04-10T15:04:53.205Z,13.00
2019-04-10T15:05:54.464Z,13.80
2019-04-10T15:06:53.307Z,13.60
2019-04-10T15:07:53.219Z,14.10
2019-04-10T15:08:52.294Z,13.80
2019-04-10T15:09:52.151Z,13.60
2019-04-10T15:10:52.143Z,14.00
2019-04-10T15:11:53.113Z,14.90
2019-04-10T15:12:53.308Z,13.90
2019-04-10T15:13:52.116Z,13.10
2019-04-10T15:14:52.130Z,13.50
2019-04-10T15:15:52.497Z,13.40
2019-04-10T15:16:57.415Z,13.00
2019-04-10T15:17:54.094Z,12.60
2019-04-10T15:18:52.121Z,12.40
2019-04-10T15:19:53.591Z,12.70
2019-04-10T15:20:52.306Z,13.10
2019-04-10T15:21:53.693Z,11.70
2019-04-10T15:22:52.700Z,12.50
2019-04-10T15:23:52.977Z,13.20
2019-04-10T15:24:51.992Z,13.20
2019-04-10T15:25:51.960Z,13.60
2019-04-10T15:26:52.875Z,14.00
2019-04-10T15:27:51.982Z,14.20
2019-04-10T15:28:52.035Z,14.10
2019-04-10T15:29:52.610Z,14.10
2019-04-10T15:30:53.000Z,13.90
2019-04-10T15:31:52.281Z,14.10
2019-04-10T15:32:51.945Z,14.30
2019-04-10T15:33:51.950Z,14.30
2019-04-10T15:34:51.855Z,14.20
2019-04-10T15:35:51.908Z,13.30
2019-04-10T15:36:52.870Z,13.90
2019-04-10T15:37:51.856Z,13.30
2019-04-10T15:38:52.743Z,14.30
2019-04-10T15:39:51.950Z,13.80
2019-04-10T15:40:52.581Z,13.50
2019-04-10T15:41:51.898Z,12.40
2019-04-10T15:42:52.350Z,13.60
2019-04-10T15:43:51.772Z,13.50
2019-04-10T15:44:51.748Z,13.60
2019-04-10T15:45:52.528Z,14.50
2019-04-10T15:46:53.309Z,14.40
2019-04-10T15:47:54.514Z,15.00
2019-04-10T15:48:52.941Z,14.80
2019-04-10T15:49:51.764Z,13.90
2019-04-10T15:50:51.850Z,14.00
2019-04-10T15:51:51.673Z,14.00
2019-04-10T15:52:51.655Z,13.70
2019-04-10T15:53:51.648Z,13.90
2019-04-10T15:54:53.324Z,13.20
2019-04-10T15:55:51.760Z,12.90
2019-04-10T15:56:52.098Z,12.60
2019-04-10T15:57:56.043Z,12.70
2019-04-10T15:58:52.593Z,13.40
2019-04-10T15:59:52.514Z,13.50
2019-04-10T16:00:51.767Z,14.00
2019-04-10T16:01:51.556Z,14.50
2019-04-10T16:02:51.588Z,14.20
2019-04-10T16:03:52.765Z,13.50
2019-04-10T16:04:51.550Z,13.50
2019-04-10T16:05:51.545Z,14.80
2019-04-10T16:06:51.619Z,14.50
2019-04-10T16:07:51.504Z,14.90
2019-04-10T16:08:52.397Z,14.20
2019-04-10T16:09:53.676Z,14.80
2019-04-10T16:10:51.454Z,14.70
2019-04-10T16:11:52.278Z,14.60
2019-04-10T16:12:52.014Z,15.20
2019-04-10T16:13:52.599Z,15.00
2019-04-10T16:14:52.436Z,15.30
2019-04-10T16:15:52.557Z,13.90
2019-04-10T16:16:51.443Z,14.40
2019-04-10T16:17:52.591Z,14.00
2019-04-10T16:18:51.389Z,14.80
2019-04-10T16:19:51.419Z,14.00
2019-04-10T16:20:51.406Z,14.70
2019-04-10T16:21:52.196Z,14.90
2019-04-10T16:22:51.341Z,14.20
2019-04-10T16:23:51.775Z,14.50
2019-04-10T16:24:51.302Z,14.80
2019-04-10T16:25:52.391Z,14.70
2019-04-10T16:26:51.752Z,13.90
2019-04-10T16:27:51.262Z,14.30
2019-04-10T16:28:51.596Z,15.20
2019-04-10T16:29:51.265Z,14.90
2019-04-10T16:30:51.270Z,14.30
2019-04-10T16:31:53.081Z,15.10
2019-04-10T16:32:52.284Z,15.30
2019-04-10T16:33:51.189Z,14.80
2019-04-10T16:34:51.263Z,14.50
2019-04-10T16:35:51.169Z,13.60
2019-04-10T16:36:52.127Z,14.90
2019-04-10T16:37:51.553Z,14.80
2019-04-10T16:38:51.294Z,14.30
2019-04-10T16:39:58.454Z,14.00
2019-04-10T16:40:52.250Z,14.70
2019-04-10T16:41:52.317Z,14.40
2019-04-10T16:42:51.131Z,13.60
2019-04-10T16:43:51.089Z,13.50
2019-04-10T16:44:51.300Z,13.90
2019-04-10T16:45:51.058Z,13.80
2019-04-10T16:46:51.046Z,14.20
2019-04-10T16:47:51.065Z,13.60
2019-04-10T16:48:51.064Z,13.50
2019-04-10T16:49:51.017Z,13.50
2019-04-10T16:50:51.942Z,13.80
2019-04-10T16:51:51.003Z,12.80
2019-04-10T16:52:51.448Z,13.00
2019-04-10T16:53:51.790Z,14.10
2019-04-10T16:54:51.422Z,13.50
2019-04-10T16:55:51.299Z,14.00
2019-04-10T16:56:50.980Z,14.20
2019-04-10T16:57:51.402Z,14.10
2019-04-10T16:58:52.071Z,13.10
2019-04-10T16:59:50.960Z,13.10
2019-04-10T17:00:50.907Z,13.50
2019-04-10T17:01:51.149Z,13.20
2019-04-10T17:02:50.870Z,13.40
2019-04-10T17:03:50.860Z,14.00
2019-04-10T17:04:50.877Z,13.70
2019-04-10T17:05:50.834Z,13.50
2019-04-10T17:06:50.824Z,14.10
2019-04-10T17:07:51.647Z,13.90
2019-04-10T17:08:50.859Z,14.20
2019-04-10T17:09:51.492Z,14.40
2019-04-10T17:10:50.775Z,13.90
2019-04-10T17:11:51.417Z,13.80
2019-04-10T17:12:51.878Z,13.70
2019-04-10T17:13:50.940Z,14.00
2019-04-10T17:14:51.277Z,13.40
2019-04-10T17:15:51.766Z,13.00
2019-04-10T17:16:50.726Z,13.60
2019-04-10T17:17:50.743Z,13.60
2019-04-10T17:18:51.688Z,13.70
2019-04-10T17:19:55.385Z,14.10
2019-04-10T17:20:52.836Z,13.90
2019-04-10T17:21:50.702Z,14.00
2019-04-10T17:22:50.642Z,14.00
2019-04-10T17:23:51.131Z,14.30
2019-04-10T17:24:50.615Z,13.70
2019-04-10T17:25:50.797Z,14.00
2019-04-10T17:26:51.011Z,13.60
2019-04-10T17:27:50.578Z,13.60
2019-04-10T17:28:50.591Z,14.10
2019-04-10T17:29:51.526Z,14.00
2019-04-10T17:30:51.820Z,14.50
2019-04-10T17:31:50.879Z,14.60
2019-04-10T17:32:50.522Z,13.90
2019-04-10T17:33:50.559Z,14.30
2019-04-10T17:34:51.337Z,14.50
2019-04-10T17:35:51.571Z,13.70
2019-04-10T17:36:51.491Z,14.30
2019-04-10T17:37:50.716Z,13.80
2019-04-10T17:38:51.036Z,14.60
2019-04-10T17:39:51.474Z,15.30
2019-04-10T17:40:53.316Z,14.60
2019-04-10T17:41:52.241Z,15.30
2019-04-10T17:42:50.430Z,14.60
2019-04-10T17:43:51.572Z,14.20
2019-04-10T17:44:50.398Z,14.30
2019-04-10T17:45:50.979Z,14.50
2019-04-10T17:46:51.281Z,13.70
2019-04-10T17:47:51.410Z,14.30
2019-04-10T17:48:51.652Z,13.70
2019-04-10T17:49:50.342Z,13.90
2019-04-10T17:50:50.334Z,13.80
2019-04-10T17:51:50.325Z,14.00
2019-04-10T17:52:51.276Z,14.10
2019-04-10T17:53:50.480Z,14.20
2019-04-10T17:54:51.247Z,13.80
2019-04-10T17:55:51.643Z,15.00
2019-04-10T17:56:50.662Z,14.30
2019-04-10T17:57:53.170Z,14.50
2019-04-10T17:58:50.288Z,14.30
2019-04-10T17:59:51.137Z,14.10
2019-04-10T18:00:51.858Z,13.60
2019-04-10T18:01:51.266Z,13.80
2019-04-10T18:02:50.856Z,14.00
2019-04-10T18:03:54.766Z,14.00
2019-04-10T18:04:51.167Z,13.70
2019-04-10T18:05:50.932Z,13.30
2019-04-10T18:06:50.140Z,14.80